ARG1876 SAEZ-SAWH
Flight info
| Callsign | ARG1876 |
|---|---|
| Flight time | 2h 58m |
| Altitude | 34000 |
| Route | GBE UZ117 DIL UT662 ASKAS UT704 DABLI |
| Aircraft | B738/M-SDE2E3FGHIRWXY/LB1 |
Departure
| Time | 2026-05-07 11:05 |
|---|---|
| Airport | Ezeiza International Airport - Ministro Pistarini (SAEZ) |
Arrival
| Time | 2026-05-07 14:03 |
|---|---|
| Airport | Ushuaia - Malvinas Argentinas International Airport (SAWH) |
| Time | Latitude | Longitude | Altitude | Speed | Heading |
|---|---|---|---|---|---|
| 2026-05-07 10:28 | -34.81479 | -58.53522 | 74 ft | 0 kts | 109° |
| 2026-05-07 10:48 | -34.81479 | -58.53523 | 74 ft | 1 kts | 109° |
| 2026-05-07 10:48 | -34.81472 | -58.53544 | 63 ft | 3 kts | 109° |
| 2026-05-07 10:48 | -34.81465 | -58.53568 | 69 ft | 3 kts | 109° |
| 2026-05-07 10:49 | -34.81459 | -58.53590 | 68 ft | 2 kts | 109° |
| 2026-05-07 10:49 | -34.81453 | -58.53607 | 71 ft | 3 kts | 140° |
| 2026-05-07 10:49 | -34.81438 | -58.53614 | 65 ft | 3 kts | 191° |
| 2026-05-07 10:49 | -34.81420 | -58.53608 | 69 ft | 2 kts | 194° |
| 2026-05-07 10:50 | -34.81418 | -58.53607 | 64 ft | 0 kts | 194° |
| 2026-05-07 10:53 | -34.81431 | -58.53612 | 68 ft | 4 kts | 197° |
| 2026-05-07 10:54 | -34.81467 | -58.53628 | 71 ft | 1 kts | 203° |
| 2026-05-07 10:56 | -34.81469 | -58.53629 | 71 ft | 2 kts | 203° |
| 2026-05-07 10:56 | -34.81497 | -58.53644 | 74 ft | 6 kts | 204° |
| 2026-05-07 10:57 | -34.81543 | -58.53675 | 74 ft | 9 kts | 212° |
| 2026-05-07 10:57 | -34.81593 | -58.53726 | 69 ft | 10 kts | 224° |
| 2026-05-07 10:57 | -34.81649 | -58.53769 | 73 ft | 10 kts | 188° |
| 2026-05-07 10:57 | -34.81709 | -58.53742 | 65 ft | 9 kts | 153° |
| 2026-05-07 10:58 | -34.81767 | -58.53708 | 72 ft | 9 kts | 154° |
| 2026-05-07 10:58 | -34.81824 | -58.53676 | 74 ft | 9 kts | 155° |
| 2026-05-07 10:58 | -34.81877 | -58.53641 | 69 ft | 9 kts | 147° |
| 2026-05-07 10:58 | -34.81914 | -58.53587 | 72 ft | 9 kts | 115° |
| 2026-05-07 10:59 | -34.81928 | -58.53512 | 72 ft | 10 kts | 103° |
| 2026-05-07 10:59 | -34.81945 | -58.53428 | 74 ft | 11 kts | 104° |
| 2026-05-07 10:59 | -34.81965 | -58.53325 | 74 ft | 14 kts | 103° |
| 2026-05-07 10:59 | -34.81992 | -58.53191 | 71 ft | 17 kts | 104° |
| 2026-05-07 11:00 | -34.82020 | -58.53054 | 78 ft | 16 kts | 103° |
| 2026-05-07 11:00 | -34.82046 | -58.52922 | 81 ft | 16 kts | 104° |
| 2026-05-07 11:00 | -34.82074 | -58.52783 | 74 ft | 18 kts | 103° |
| 2026-05-07 11:00 | -34.82104 | -58.52634 | 75 ft | 18 kts | 103° |
| 2026-05-07 11:01 | -34.82134 | -58.52484 | 75 ft | 19 kts | 103° |
| 2026-05-07 11:01 | -34.82165 | -58.52325 | 72 ft | 20 kts | 103° |
| 2026-05-07 11:01 | -34.82199 | -58.52160 | 67 ft | 20 kts | 104° |
| 2026-05-07 11:01 | -34.82232 | -58.51994 | 72 ft | 20 kts | 103° |
| 2026-05-07 11:02 | -34.82258 | -58.51863 | 71 ft | 12 kts | 103° |
| 2026-05-07 11:02 | -34.82288 | -58.51788 | 65 ft | 9 kts | 153° |
| 2026-05-07 11:02 | -34.82339 | -58.51792 | 72 ft | 5 kts | 192° |
| 2026-05-07 11:02 | -34.82371 | -58.51800 | 66 ft | 5 kts | 193° |
| 2026-05-07 11:03 | -34.82401 | -58.51809 | 69 ft | 4 kts | 193° |
| 2026-05-07 11:03 | -34.82434 | -58.51818 | 68 ft | 6 kts | 193° |
| 2026-05-07 11:03 | -34.82477 | -58.51830 | 85 ft | 6 kts | 193° |
| 2026-05-07 11:03 | -34.82525 | -58.51848 | 83 ft | 8 kts | 217° |
| 2026-05-07 11:04 | -34.82527 | -58.51880 | 81 ft | 5 kts | 284° |
| 2026-05-07 11:04 | -34.82506 | -58.51987 | 80 ft | 35 kts | 282° |
| 2026-05-07 11:04 | -34.82402 | -58.52573 | 78 ft | 105 kts | 282° |
| 2026-05-07 11:04 | -34.82204 | -58.53682 | 86 ft | 161 kts | 282° |
| 2026-05-07 11:05 | -34.81934 | -58.55072 | 609 ft | 171 kts | 281° |
| 2026-05-07 11:05 | -34.81661 | -58.56492 | 1376 ft | 174 kts | 278° |
| 2026-05-07 11:05 | -34.81388 | -58.57941 | 2087 ft | 182 kts | 274° |
| 2026-05-07 11:05 | -34.81115 | -58.59581 | 2365 ft | 210 kts | 272° |
| 2026-05-07 11:06 | -34.81263 | -58.61365 | 2605 ft | 217 kts | 241° |
| 2026-05-07 11:06 | -34.82029 | -58.62992 | 2984 ft | 231 kts | 233° |
| 2026-05-07 11:06 | -34.82952 | -58.64698 | 3343 ft | 248 kts | 232° |
| 2026-05-07 11:06 | -34.83808 | -58.66239 | 3928 ft | 255 kts | 232° |
| 2026-05-07 11:07 | -34.84827 | -58.68036 | 4738 ft | 260 kts | 232° |
| 2026-05-07 11:07 | -34.85875 | -58.69869 | 5472 ft | 267 kts | 232° |
| 2026-05-07 11:07 | -34.87057 | -58.71611 | 6210 ft | 269 kts | 215° |
| 2026-05-07 11:07 | -34.88722 | -58.72563 | 6992 ft | 266 kts | 191° |
| 2026-05-07 11:08 | -34.90573 | -58.72607 | 7741 ft | 271 kts | 172° |
| 2026-05-07 11:08 | -34.92456 | -58.72123 | 8436 ft | 282 kts | 168° |
| 2026-05-07 11:08 | -34.94384 | -58.71523 | 9132 ft | 291 kts | 168° |
| 2026-05-07 11:08 | -34.96371 | -58.70885 | 9752 ft | 300 kts | 168° |
| 2026-05-07 11:09 | -34.98450 | -58.70222 | 10051 ft | 321 kts | 168° |
| 2026-05-07 11:09 | -35.00678 | -58.69520 | 10370 ft | 338 kts | 168° |
| 2026-05-07 11:09 | -35.02990 | -58.68796 | 10968 ft | 346 kts | 169° |
| 2026-05-07 11:09 | -35.05334 | -58.68068 | 11648 ft | 350 kts | 170° |
| 2026-05-07 11:10 | -35.07739 | -58.67692 | 12331 ft | 347 kts | 186° |
| 2026-05-07 11:10 | -35.10109 | -58.68087 | 13088 ft | 344 kts | 197° |
| 2026-05-07 11:10 | -35.12462 | -58.68694 | 13751 ft | 347 kts | 198° |
| 2026-05-07 11:10 | -35.14849 | -58.69329 | 14271 ft | 355 kts | 199° |
| 2026-05-07 11:11 | -35.17295 | -58.69980 | 14750 ft | 364 kts | 199° |
| 2026-05-07 11:11 | -35.19766 | -58.70629 | 15255 ft | 371 kts | 199° |
| 2026-05-07 11:11 | -35.22317 | -58.71290 | 15749 ft | 378 kts | 199° |
| 2026-05-07 11:11 | -35.24921 | -58.71958 | 16229 ft | 386 kts | 199° |
| 2026-05-07 11:12 | -35.27575 | -58.72635 | 16709 ft | 393 kts | 200° |
| 2026-05-07 11:12 | -35.30276 | -58.73320 | 17182 ft | 400 kts | 200° |
| 2026-05-07 11:12 | -35.33025 | -58.74016 | 17668 ft | 407 kts | 200° |
| 2026-05-07 11:12 | -35.35822 | -58.74722 | 18110 ft | 414 kts | 200° |
| 2026-05-07 11:13 | -35.38655 | -58.75437 | 18613 ft | 417 kts | 200° |
| 2026-05-07 11:13 | -35.41503 | -58.76152 | 19178 ft | 418 kts | 201° |
| 2026-05-07 11:13 | -35.44358 | -58.76870 | 19719 ft | 420 kts | 201° |
| 2026-05-07 11:13 | -35.47237 | -58.77598 | 20218 ft | 424 kts | 201° |
| 2026-05-07 11:14 | -35.50131 | -58.78331 | 20709 ft | 427 kts | 201° |
| 2026-05-07 11:14 | -35.53053 | -58.79072 | 21187 ft | 430 kts | 201° |
| 2026-05-07 11:14 | -35.55996 | -58.79819 | 21660 ft | 434 kts | 201° |
| 2026-05-07 11:14 | -35.58964 | -58.80573 | 22133 ft | 437 kts | 201° |
| 2026-05-07 11:15 | -35.61947 | -58.81331 | 22597 ft | 440 kts | 201° |
| 2026-05-07 11:15 | -35.64954 | -58.82096 | 23044 ft | 443 kts | 202° |
| 2026-05-07 11:15 | -35.67986 | -58.82868 | 23435 ft | 447 kts | 202° |
| 2026-05-07 11:15 | -35.71040 | -58.83646 | 23805 ft | 450 kts | 201° |
| 2026-05-07 11:16 | -35.74116 | -58.84429 | 24180 ft | 453 kts | 201° |
| 2026-05-07 11:16 | -35.77208 | -58.85218 | 24549 ft | 456 kts | 201° |
| 2026-05-07 11:16 | -35.80322 | -58.86012 | 24902 ft | 459 kts | 201° |
| 2026-05-07 11:16 | -35.83459 | -58.86814 | 25252 ft | 462 kts | 201° |
| 2026-05-07 11:17 | -35.86536 | -58.87601 | 25584 ft | 465 kts | 201° |
| 2026-05-07 11:17 | -35.89715 | -58.88414 | 25921 ft | 468 kts | 201° |
| 2026-05-07 11:17 | -35.92910 | -58.89232 | 26252 ft | 471 kts | 201° |
| 2026-05-07 11:17 | -35.96129 | -58.90056 | 26590 ft | 474 kts | 201° |
| 2026-05-07 11:18 | -35.99364 | -58.90886 | 26908 ft | 477 kts | 200° |
| 2026-05-07 11:18 | -36.02620 | -58.91721 | 27222 ft | 480 kts | 200° |
| 2026-05-07 11:18 | -36.05901 | -58.92564 | 27538 ft | 482 kts | 200° |
| 2026-05-07 11:18 | -36.09195 | -58.93411 | 27852 ft | 485 kts | 200° |
| 2026-05-07 11:19 | -36.12508 | -58.94264 | 28158 ft | 488 kts | 200° |
| 2026-05-07 11:19 | -36.15838 | -58.95122 | 28459 ft | 491 kts | 200° |
| 2026-05-07 11:19 | -36.19194 | -58.95989 | 28756 ft | 494 kts | 200° |
| 2026-05-07 11:19 | -36.22564 | -58.96852 | 29069 ft | 496 kts | 200° |
| 2026-05-07 11:20 | -36.25950 | -58.97723 | 29356 ft | 498 kts | 200° |
| 2026-05-07 11:20 | -36.29298 | -58.98592 | 29582 ft | 500 kts | 200° |
| 2026-05-07 11:20 | -36.32724 | -58.99480 | 29794 ft | 505 kts | 199° |
| 2026-05-07 11:20 | -36.36155 | -59.00372 | 30198 ft | 503 kts | 199° |
| 2026-05-07 11:21 | -36.39580 | -59.01254 | 30606 ft | 503 kts | 200° |
| 2026-05-07 11:21 | -36.42996 | -59.02140 | 31014 ft | 501 kts | 199° |
| 2026-05-07 11:21 | -36.46405 | -59.03019 | 31301 ft | 500 kts | 200° |
| 2026-05-07 11:21 | -36.49815 | -59.03909 | 31477 ft | 503 kts | 199° |
| 2026-05-07 11:22 | -36.53252 | -59.04807 | 31767 ft | 505 kts | 199° |
| 2026-05-07 11:22 | -36.56680 | -59.05687 | 32195 ft | 502 kts | 199° |
| 2026-05-07 11:22 | -36.60094 | -59.06573 | 32572 ft | 500 kts | 199° |
| 2026-05-07 11:22 | -36.63502 | -59.07465 | 32844 ft | 501 kts | 199° |
| 2026-05-07 11:23 | -36.66918 | -59.08363 | 33067 ft | 503 kts | 199° |
| 2026-05-07 11:23 | -36.70337 | -59.09261 | 33345 ft | 503 kts | 199° |
| 2026-05-07 11:23 | -36.73759 | -59.10158 | 33645 ft | 502 kts | 199° |
| 2026-05-07 11:23 | -36.77198 | -59.11061 | 33635 ft | 507 kts | 199° |
| 2026-05-07 11:24 | -36.84101 | -59.12871 | 33644 ft | 505 kts | 198° |
| 2026-05-07 11:24 | -36.90928 | -59.14657 | 33638 ft | 499 kts | 199° |
| 2026-05-07 11:25 | -36.97724 | -59.16448 | 33652 ft | 499 kts | 199° |
| 2026-05-07 11:25 | -37.04518 | -59.18241 | 33653 ft | 499 kts | 198° |
| 2026-05-07 11:26 | -37.11319 | -59.20038 | 33648 ft | 499 kts | 198° |
| 2026-05-07 11:26 | -37.18117 | -59.21838 | 33652 ft | 499 kts | 198° |
| 2026-05-07 11:27 | -37.24872 | -59.23778 | 33631 ft | 496 kts | 203° |
| 2026-05-07 11:27 | -37.31443 | -59.26287 | 33638 ft | 492 kts | 205° |
| 2026-05-07 11:28 | -37.37964 | -59.28918 | 33639 ft | 492 kts | 205° |
| 2026-05-07 11:28 | -37.44484 | -59.31498 | 33632 ft | 491 kts | 205° |
| 2026-05-07 11:29 | -37.51006 | -59.34038 | 33633 ft | 490 kts | 205° |
| 2026-05-07 11:29 | -37.57513 | -59.36564 | 33637 ft | 488 kts | 205° |
| 2026-05-07 11:30 | -37.63956 | -59.39071 | 33635 ft | 488 kts | 205° |
| 2026-05-07 11:30 | -37.70434 | -59.41601 | 33640 ft | 486 kts | 205° |
| 2026-05-07 11:31 | -37.76892 | -59.44128 | 33641 ft | 486 kts | 205° |
| 2026-05-07 11:31 | -37.83341 | -59.46655 | 33643 ft | 485 kts | 205° |
| 2026-05-07 11:32 | -37.92991 | -59.50446 | 33648 ft | 484 kts | 205° |
| 2026-05-07 11:33 | -37.99407 | -59.52972 | 33634 ft | 483 kts | 205° |
| 2026-05-07 11:33 | -38.05824 | -59.55503 | 33640 ft | 482 kts | 205° |
| 2026-05-07 11:34 | -38.12234 | -59.58037 | 33643 ft | 482 kts | 205° |
| 2026-05-07 11:34 | -38.18638 | -59.60572 | 33649 ft | 482 kts | 205° |
| 2026-05-07 11:35 | -38.25050 | -59.63115 | 33647 ft | 482 kts | 205° |
| 2026-05-07 11:35 | -38.31456 | -59.65660 | 33650 ft | 482 kts | 205° |
| 2026-05-07 11:36 | -38.37821 | -59.68195 | 33646 ft | 482 kts | 205° |
| 2026-05-07 11:36 | -38.44228 | -59.70755 | 33647 ft | 482 kts | 205° |
| 2026-05-07 11:37 | -38.50632 | -59.73318 | 33647 ft | 482 kts | 205° |
| 2026-05-07 11:37 | -38.57031 | -59.75885 | 33645 ft | 483 kts | 205° |
| 2026-05-07 11:38 | -38.63441 | -59.78461 | 33648 ft | 483 kts | 205° |
| 2026-05-07 11:38 | -38.69849 | -59.81040 | 33652 ft | 483 kts | 205° |
| 2026-05-07 11:39 | -38.76254 | -59.83623 | 33648 ft | 483 kts | 205° |
| 2026-05-07 11:39 | -38.82662 | -59.86213 | 33649 ft | 483 kts | 205° |
| 2026-05-07 11:40 | -38.87982 | -59.88365 | 33649 ft | 482 kts | 205° |
| 2026-05-07 11:40 | -38.95462 | -59.91398 | 33651 ft | 482 kts | 205° |
| 2026-05-07 11:41 | -39.00776 | -59.93558 | 33654 ft | 482 kts | 205° |
| 2026-05-07 11:41 | -39.07167 | -59.96159 | 33650 ft | 481 kts | 205° |
| 2026-05-07 11:42 | -39.13550 | -59.98761 | 33656 ft | 481 kts | 205° |
| 2026-05-07 11:42 | -39.19926 | -60.01365 | 33655 ft | 481 kts | 205° |
| 2026-05-07 11:43 | -39.26299 | -60.03974 | 33653 ft | 480 kts | 205° |
| 2026-05-07 11:43 | -39.32626 | -60.06569 | 33657 ft | 480 kts | 205° |
| 2026-05-07 11:44 | -39.38982 | -60.09180 | 33656 ft | 479 kts | 204° |
| 2026-05-07 11:44 | -39.45340 | -60.11796 | 33657 ft | 479 kts | 204° |
| 2026-05-07 11:45 | -39.51681 | -60.14412 | 33662 ft | 478 kts | 205° |
| 2026-05-07 11:45 | -39.58017 | -60.17030 | 33659 ft | 478 kts | 204° |
| 2026-05-07 11:46 | -39.64351 | -60.19654 | 33664 ft | 478 kts | 204° |
| 2026-05-07 11:46 | -39.70684 | -60.22281 | 33668 ft | 478 kts | 204° |
| 2026-05-07 11:47 | -39.77011 | -60.24912 | 33668 ft | 477 kts | 204° |
| 2026-05-07 11:47 | -39.83339 | -60.27547 | 33668 ft | 477 kts | 204° |
| 2026-05-07 11:48 | -39.89670 | -60.30191 | 33674 ft | 478 kts | 204° |
| 2026-05-07 11:48 | -39.96005 | -60.32840 | 33675 ft | 478 kts | 204° |
| 2026-05-07 11:49 | -40.02332 | -60.35490 | 33669 ft | 478 kts | 204° |
| 2026-05-07 11:49 | -40.08667 | -60.38145 | 33677 ft | 478 kts | 204° |
| 2026-05-07 11:50 | -40.14995 | -60.40805 | 33683 ft | 478 kts | 204° |
| 2026-05-07 11:50 | -40.21320 | -60.43472 | 33673 ft | 478 kts | 204° |
| 2026-05-07 11:51 | -40.27648 | -60.46143 | 33677 ft | 477 kts | 204° |
| 2026-05-07 11:51 | -40.33955 | -60.48812 | 33678 ft | 476 kts | 204° |
| 2026-05-07 11:52 | -40.40265 | -60.51488 | 33682 ft | 477 kts | 204° |
| 2026-05-07 11:52 | -40.46535 | -60.54149 | 33670 ft | 476 kts | 204° |
| 2026-05-07 11:53 | -40.52881 | -60.56784 | 33703 ft | 475 kts | 202° |
| 2026-05-07 11:53 | -40.59171 | -60.59230 | 33673 ft | 474 kts | 202° |
| 2026-05-07 11:54 | -40.65483 | -60.61668 | 33678 ft | 472 kts | 202° |
| 2026-05-07 11:54 | -40.71778 | -60.64127 | 33681 ft | 472 kts | 202° |
| 2026-05-07 11:55 | -40.78062 | -60.66599 | 33687 ft | 470 kts | 202° |
| 2026-05-07 11:55 | -40.84331 | -60.69075 | 33685 ft | 470 kts | 202° |
| 2026-05-07 11:56 | -40.90589 | -60.71551 | 33688 ft | 470 kts | 202° |
| 2026-05-07 11:56 | -40.96851 | -60.74034 | 33704 ft | 470 kts | 202° |
| 2026-05-07 11:57 | -41.03118 | -60.76523 | 33690 ft | 470 kts | 202° |
| 2026-05-07 11:57 | -41.09378 | -60.79012 | 33704 ft | 470 kts | 202° |
| 2026-05-07 11:58 | -41.15649 | -60.81512 | 33690 ft | 470 kts | 202° |
| 2026-05-07 11:58 | -41.21918 | -60.84016 | 33700 ft | 470 kts | 202° |
| 2026-05-07 11:59 | -41.28180 | -60.86522 | 33700 ft | 470 kts | 202° |
| 2026-05-07 11:59 | -41.34430 | -60.89028 | 33700 ft | 469 kts | 202° |
| 2026-05-07 12:00 | -41.40672 | -60.91536 | 33698 ft | 468 kts | 202° |
| 2026-05-07 12:00 | -41.46852 | -60.94024 | 33694 ft | 466 kts | 202° |
| 2026-05-07 12:01 | -41.53045 | -60.96522 | 33699 ft | 464 kts | 202° |
| 2026-05-07 12:01 | -41.59215 | -60.99016 | 33713 ft | 462 kts | 201° |
| 2026-05-07 12:02 | -41.65377 | -61.01513 | 33711 ft | 463 kts | 201° |
| 2026-05-07 12:02 | -41.71545 | -61.04018 | 33694 ft | 463 kts | 201° |
| 2026-05-07 12:03 | -41.77688 | -61.06515 | 33699 ft | 460 kts | 201° |
| 2026-05-07 12:03 | -41.83803 | -61.09006 | 33706 ft | 458 kts | 201° |
| 2026-05-07 12:04 | -41.89893 | -61.11492 | 33714 ft | 457 kts | 201° |
| 2026-05-07 12:04 | -41.95965 | -61.13976 | 33721 ft | 457 kts | 201° |
| 2026-05-07 12:05 | -42.02018 | -61.16460 | 33698 ft | 458 kts | 201° |
| 2026-05-07 12:05 | -42.08100 | -61.18958 | 33707 ft | 456 kts | 201° |
| 2026-05-07 12:06 | -42.14172 | -61.21457 | 33722 ft | 457 kts | 200° |
| 2026-05-07 12:06 | -42.20255 | -61.23965 | 33699 ft | 457 kts | 200° |
| 2026-05-07 12:07 | -42.26326 | -61.26474 | 33715 ft | 456 kts | 200° |
| 2026-05-07 12:07 | -42.32390 | -61.28986 | 33705 ft | 456 kts | 200° |
| 2026-05-07 12:08 | -42.38447 | -61.31502 | 33718 ft | 455 kts | 200° |
| 2026-05-07 12:08 | -42.44506 | -61.34019 | 33712 ft | 455 kts | 200° |
| 2026-05-07 12:09 | -42.50567 | -61.36544 | 33716 ft | 456 kts | 200° |
| 2026-05-07 12:09 | -42.56637 | -61.39077 | 33717 ft | 458 kts | 200° |
| 2026-05-07 12:10 | -42.62736 | -61.41629 | 33719 ft | 460 kts | 200° |
| 2026-05-07 12:10 | -42.68855 | -61.44193 | 33708 ft | 460 kts | 200° |
| 2026-05-07 12:11 | -42.74967 | -61.46760 | 33710 ft | 460 kts | 200° |
| 2026-05-07 12:11 | -42.81071 | -61.49329 | 33708 ft | 459 kts | 200° |
| 2026-05-07 12:12 | -42.87161 | -61.51898 | 33712 ft | 458 kts | 200° |
| 2026-05-07 12:12 | -42.93194 | -61.54448 | 33717 ft | 457 kts | 200° |
| 2026-05-07 12:13 | -42.99265 | -61.57019 | 33714 ft | 456 kts | 200° |
| 2026-05-07 12:13 | -43.05332 | -61.59590 | 33718 ft | 457 kts | 200° |
| 2026-05-07 12:14 | -43.11403 | -61.62166 | 33718 ft | 457 kts | 200° |
| 2026-05-07 12:14 | -43.17523 | -61.64770 | 33715 ft | 458 kts | 200° |
| 2026-05-07 12:15 | -43.23604 | -61.67364 | 33715 ft | 458 kts | 200° |
| 2026-05-07 12:15 | -43.29699 | -61.69968 | 33717 ft | 459 kts | 200° |
| 2026-05-07 12:16 | -43.35808 | -61.72585 | 33734 ft | 462 kts | 200° |
| 2026-05-07 12:16 | -43.41969 | -61.75229 | 33721 ft | 465 kts | 200° |
| 2026-05-07 12:17 | -43.48142 | -61.77883 | 33705 ft | 464 kts | 200° |
| 2026-05-07 12:17 | -43.54244 | -61.80512 | 33707 ft | 461 kts | 200° |
| 2026-05-07 12:18 | -43.60344 | -61.83146 | 33707 ft | 458 kts | 200° |
| 2026-05-07 12:18 | -43.66406 | -61.85771 | 33717 ft | 456 kts | 200° |
| 2026-05-07 12:19 | -43.72446 | -61.88390 | 33727 ft | 454 kts | 200° |
| 2026-05-07 12:19 | -43.78460 | -61.91005 | 33713 ft | 453 kts | 200° |
| 2026-05-07 12:20 | -43.84460 | -61.93619 | 33720 ft | 452 kts | 200° |
| 2026-05-07 12:20 | -43.90452 | -61.96233 | 33721 ft | 452 kts | 200° |
| 2026-05-07 12:21 | -43.96411 | -61.98839 | 33719 ft | 452 kts | 200° |
| 2026-05-07 12:21 | -44.02415 | -62.01472 | 33728 ft | 454 kts | 200° |
| 2026-05-07 12:22 | -44.08448 | -62.04124 | 33712 ft | 455 kts | 200° |
| 2026-05-07 12:22 | -44.14484 | -62.06780 | 33718 ft | 454 kts | 200° |
| 2026-05-07 12:23 | -44.20498 | -62.09432 | 33721 ft | 453 kts | 200° |
| 2026-05-07 12:23 | -44.26495 | -62.12083 | 33720 ft | 451 kts | 200° |
| 2026-05-07 12:24 | -44.32472 | -62.14732 | 33717 ft | 450 kts | 200° |
| 2026-05-07 12:24 | -44.38435 | -62.17379 | 33736 ft | 450 kts | 200° |
| 2026-05-07 12:25 | -44.44404 | -62.20036 | 33731 ft | 451 kts | 200° |
| 2026-05-07 12:25 | -44.50378 | -62.22701 | 33717 ft | 450 kts | 200° |
| 2026-05-07 12:26 | -44.56331 | -62.25359 | 33724 ft | 448 kts | 200° |
| 2026-05-07 12:26 | -44.62251 | -62.28010 | 33722 ft | 446 kts | 200° |
| 2026-05-07 12:27 | -44.68155 | -62.30660 | 33728 ft | 445 kts | 200° |
| 2026-05-07 12:27 | -44.74018 | -62.33298 | 33749 ft | 446 kts | 200° |
| 2026-05-07 12:28 | -44.79962 | -62.35979 | 33747 ft | 451 kts | 201° |
| 2026-05-07 12:28 | -44.85940 | -62.38679 | 33734 ft | 451 kts | 200° |
| 2026-05-07 12:29 | -44.91901 | -62.41376 | 33733 ft | 449 kts | 201° |
| 2026-05-07 12:29 | -44.97831 | -62.44066 | 33736 ft | 447 kts | 201° |
| 2026-05-07 12:30 | -45.03739 | -62.46753 | 33739 ft | 446 kts | 201° |
| 2026-05-07 12:30 | -45.09637 | -62.49443 | 33746 ft | 445 kts | 201° |
| 2026-05-07 12:31 | -45.15541 | -62.52143 | 33758 ft | 446 kts | 201° |
| 2026-05-07 12:31 | -45.21479 | -62.54865 | 33754 ft | 451 kts | 201° |
| 2026-05-07 12:32 | -45.26447 | -62.57147 | 33750 ft | 451 kts | 201° |
| 2026-05-07 12:32 | -45.32424 | -62.59896 | 33758 ft | 452 kts | 201° |
| 2026-05-07 12:33 | -45.41407 | -62.64041 | 33767 ft | 452 kts | 201° |
| 2026-05-07 12:33 | -45.47405 | -62.66817 | 33760 ft | 454 kts | 201° |
| 2026-05-07 12:34 | -45.53409 | -62.69601 | 33760 ft | 453 kts | 201° |
| 2026-05-07 12:34 | -45.59394 | -62.72382 | 33768 ft | 452 kts | 201° |
| 2026-05-07 12:35 | -45.65373 | -62.75168 | 33774 ft | 451 kts | 201° |
| 2026-05-07 12:35 | -45.71331 | -62.77949 | 33780 ft | 450 kts | 201° |
| 2026-05-07 12:36 | -45.77271 | -62.80728 | 33785 ft | 449 kts | 201° |
| 2026-05-07 12:36 | -45.83204 | -62.83510 | 33778 ft | 448 kts | 201° |
| 2026-05-07 12:37 | -45.89125 | -62.86292 | 33799 ft | 448 kts | 201° |
| 2026-05-07 12:37 | -45.95044 | -62.89082 | 33812 ft | 448 kts | 201° |
| 2026-05-07 12:38 | -46.00981 | -62.91885 | 33800 ft | 449 kts | 201° |
| 2026-05-07 12:38 | -46.06914 | -62.94694 | 33804 ft | 449 kts | 201° |
| 2026-05-07 12:39 | -46.12851 | -62.97510 | 33813 ft | 449 kts | 201° |
| 2026-05-07 12:39 | -46.18795 | -63.00335 | 33815 ft | 450 kts | 201° |
| 2026-05-07 12:40 | -46.24739 | -63.03166 | 33818 ft | 450 kts | 201° |
| 2026-05-07 12:40 | -46.30684 | -63.06005 | 33849 ft | 451 kts | 202° |
| 2026-05-07 12:41 | -46.36627 | -63.08852 | 33832 ft | 455 kts | 202° |
| 2026-05-07 12:41 | -46.42640 | -63.11737 | 33840 ft | 455 kts | 202° |
| 2026-05-07 12:42 | -46.48634 | -63.14617 | 33830 ft | 452 kts | 202° |
| 2026-05-07 12:42 | -46.54578 | -63.17480 | 33840 ft | 448 kts | 202° |
| 2026-05-07 12:43 | -46.60509 | -63.20345 | 33846 ft | 445 kts | 202° |
| 2026-05-07 12:43 | -46.66375 | -63.23186 | 33861 ft | 444 kts | 202° |
| 2026-05-07 12:44 | -46.72238 | -63.26033 | 33880 ft | 445 kts | 202° |
| 2026-05-07 12:44 | -46.78084 | -63.28878 | 33871 ft | 447 kts | 203° |
| 2026-05-07 12:45 | -46.84013 | -63.31770 | 33889 ft | 449 kts | 203° |
| 2026-05-07 12:45 | -46.89958 | -63.34675 | 33888 ft | 452 kts | 203° |
| 2026-05-07 12:46 | -46.95901 | -63.37586 | 33894 ft | 454 kts | 203° |
| 2026-05-07 12:46 | -47.01908 | -63.40536 | 33903 ft | 457 kts | 203° |
| 2026-05-07 12:47 | -47.07941 | -63.43505 | 33899 ft | 458 kts | 203° |
| 2026-05-07 12:47 | -47.13993 | -63.46489 | 33905 ft | 459 kts | 203° |
| 2026-05-07 12:48 | -47.20043 | -63.49481 | 33914 ft | 459 kts | 203° |
| 2026-05-07 12:48 | -47.26096 | -63.52481 | 33911 ft | 458 kts | 203° |
| 2026-05-07 12:49 | -47.32134 | -63.55482 | 33921 ft | 457 kts | 203° |
| 2026-05-07 12:49 | -47.38163 | -63.58486 | 33925 ft | 457 kts | 203° |
| 2026-05-07 12:50 | -47.44194 | -63.61497 | 33932 ft | 457 kts | 203° |
| 2026-05-07 12:50 | -47.50217 | -63.64510 | 33934 ft | 457 kts | 203° |
| 2026-05-07 12:51 | -47.56248 | -63.67536 | 33954 ft | 458 kts | 203° |
| 2026-05-07 12:51 | -47.62285 | -63.70575 | 33952 ft | 459 kts | 203° |
| 2026-05-07 12:52 | -47.68344 | -63.73631 | 33960 ft | 460 kts | 203° |
| 2026-05-07 12:52 | -47.74417 | -63.76701 | 33951 ft | 461 kts | 203° |
| 2026-05-07 12:53 | -47.80451 | -63.79758 | 33958 ft | 461 kts | 203° |
| 2026-05-07 12:53 | -47.86521 | -63.82841 | 33967 ft | 461 kts | 203° |
| 2026-05-07 12:54 | -47.92633 | -63.85953 | 33971 ft | 461 kts | 203° |
| 2026-05-07 12:54 | -47.98702 | -63.89051 | 33976 ft | 461 kts | 203° |
| 2026-05-07 12:55 | -48.04761 | -63.92152 | 33982 ft | 460 kts | 203° |
| 2026-05-07 12:55 | -48.10774 | -63.95237 | 33972 ft | 460 kts | 203° |
| 2026-05-07 12:56 | -48.16819 | -63.98346 | 33991 ft | 459 kts | 203° |
| 2026-05-07 12:56 | -48.22851 | -64.01458 | 33986 ft | 458 kts | 203° |
| 2026-05-07 12:57 | -48.28877 | -64.04573 | 33988 ft | 458 kts | 203° |
| 2026-05-07 12:57 | -48.34906 | -64.07695 | 33993 ft | 458 kts | 204° |
| 2026-05-07 12:58 | -48.40923 | -64.10818 | 34002 ft | 457 kts | 204° |
| 2026-05-07 12:58 | -48.46935 | -64.13947 | 34001 ft | 457 kts | 204° |
| 2026-05-07 12:59 | -48.52949 | -64.17085 | 34005 ft | 457 kts | 204° |
| 2026-05-07 12:59 | -48.58947 | -64.20223 | 34009 ft | 457 kts | 204° |
| 2026-05-07 13:00 | -48.64950 | -64.23372 | 34011 ft | 457 kts | 204° |
| 2026-05-07 13:00 | -48.70949 | -64.26528 | 34012 ft | 457 kts | 204° |
| 2026-05-07 13:01 | -48.76906 | -64.29671 | 34006 ft | 456 kts | 204° |
| 2026-05-07 13:01 | -48.82904 | -64.32840 | 34014 ft | 456 kts | 204° |
| 2026-05-07 13:02 | -48.88890 | -64.36012 | 34016 ft | 456 kts | 204° |
| 2026-05-07 13:02 | -48.94870 | -64.39189 | 34013 ft | 455 kts | 204° |
| 2026-05-07 13:03 | -49.00845 | -64.42371 | 34022 ft | 454 kts | 204° |
| 2026-05-07 13:03 | -49.06811 | -64.45558 | 34032 ft | 454 kts | 204° |
| 2026-05-07 13:04 | -49.12767 | -64.48745 | 34027 ft | 454 kts | 204° |
| 2026-05-07 13:04 | -49.18720 | -64.51941 | 34032 ft | 453 kts | 204° |
| 2026-05-07 13:05 | -49.24668 | -64.55142 | 34017 ft | 453 kts | 204° |
| 2026-05-07 13:05 | -49.30602 | -64.58343 | 34034 ft | 452 kts | 204° |
| 2026-05-07 13:06 | -49.36529 | -64.61548 | 34025 ft | 452 kts | 204° |
| 2026-05-07 13:06 | -49.42451 | -64.64758 | 34028 ft | 451 kts | 204° |
| 2026-05-07 13:07 | -49.48358 | -64.67970 | 34025 ft | 450 kts | 204° |
| 2026-05-07 13:07 | -49.54250 | -64.71182 | 34033 ft | 449 kts | 204° |
| 2026-05-07 13:08 | -49.60126 | -64.74391 | 34038 ft | 448 kts | 204° |
| 2026-05-07 13:08 | -49.66002 | -64.77611 | 34030 ft | 448 kts | 204° |
| 2026-05-07 13:09 | -49.71862 | -64.80830 | 34032 ft | 447 kts | 204° |
| 2026-05-07 13:09 | -49.77679 | -64.84033 | 34035 ft | 446 kts | 204° |
| 2026-05-07 13:10 | -49.83522 | -64.87259 | 34031 ft | 446 kts | 204° |
| 2026-05-07 13:10 | -49.89357 | -64.90488 | 34032 ft | 445 kts | 204° |
| 2026-05-07 13:11 | -49.95181 | -64.93719 | 34039 ft | 444 kts | 204° |
| 2026-05-07 13:11 | -50.00997 | -64.96955 | 34032 ft | 444 kts | 204° |
| 2026-05-07 13:12 | -50.06813 | -65.00199 | 34030 ft | 443 kts | 204° |
| 2026-05-07 13:12 | -50.12612 | -65.03442 | 34037 ft | 443 kts | 204° |
| 2026-05-07 13:13 | -50.18407 | -65.06691 | 34030 ft | 442 kts | 204° |
| 2026-05-07 13:13 | -50.24200 | -65.09947 | 34037 ft | 442 kts | 204° |
| 2026-05-07 13:14 | -50.29989 | -65.13209 | 34034 ft | 443 kts | 204° |
| 2026-05-07 13:14 | -50.35749 | -65.16464 | 34029 ft | 443 kts | 204° |
| 2026-05-07 13:15 | -50.41542 | -65.19744 | 34035 ft | 442 kts | 204° |
| 2026-05-07 13:15 | -50.47328 | -65.23031 | 34033 ft | 442 kts | 204° |
| 2026-05-07 13:16 | -50.53106 | -65.26321 | 34039 ft | 442 kts | 204° |
| 2026-05-07 13:16 | -50.58894 | -65.29623 | 34038 ft | 443 kts | 204° |
| 2026-05-07 13:17 | -50.64685 | -65.32935 | 34033 ft | 443 kts | 204° |
| 2026-05-07 13:17 | -50.70484 | -65.36269 | 34035 ft | 444 kts | 204° |
| 2026-05-07 13:18 | -50.76304 | -65.39622 | 34041 ft | 446 kts | 204° |
| 2026-05-07 13:18 | -50.82102 | -65.42967 | 34038 ft | 447 kts | 204° |
| 2026-05-07 13:19 | -50.87941 | -65.46342 | 34042 ft | 447 kts | 204° |
| 2026-05-07 13:19 | -50.93789 | -65.49733 | 34039 ft | 448 kts | 204° |
| 2026-05-07 13:20 | -50.99636 | -65.53133 | 34040 ft | 447 kts | 204° |
| 2026-05-07 13:20 | -51.05473 | -65.56536 | 34039 ft | 447 kts | 204° |
| 2026-05-07 13:21 | -51.11303 | -65.59946 | 34037 ft | 446 kts | 204° |
| 2026-05-07 13:21 | -51.17121 | -65.63360 | 34034 ft | 445 kts | 204° |
| 2026-05-07 13:22 | -51.21941 | -65.66192 | 34029 ft | 444 kts | 204° |
| 2026-05-07 13:22 | -51.27732 | -65.69602 | 34042 ft | 443 kts | 204° |
| 2026-05-07 13:23 | -51.33505 | -65.73013 | 34046 ft | 442 kts | 204° |
| 2026-05-07 13:23 | -51.39257 | -65.76421 | 34048 ft | 441 kts | 204° |
| 2026-05-07 13:24 | -51.45003 | -65.79833 | 34047 ft | 440 kts | 204° |
| 2026-05-07 13:24 | -51.50743 | -65.83252 | 34050 ft | 440 kts | 204° |
| 2026-05-07 13:25 | -51.56486 | -65.86684 | 34052 ft | 441 kts | 204° |
| 2026-05-07 13:25 | -51.62229 | -65.90119 | 34049 ft | 440 kts | 204° |
| 2026-05-07 13:26 | -51.67934 | -65.93547 | 34057 ft | 440 kts | 204° |
| 2026-05-07 13:26 | -51.73676 | -65.97007 | 34060 ft | 440 kts | 204° |
| 2026-05-07 13:27 | -51.79416 | -66.00465 | 34057 ft | 440 kts | 203° |
| 2026-05-07 13:27 | -51.85195 | -66.03732 | 34054 ft | 440 kts | 201° |
| 2026-05-07 13:28 | -51.90998 | -66.06915 | 34058 ft | 440 kts | 201° |
| 2026-05-07 13:28 | -51.96794 | -66.10116 | 34058 ft | 440 kts | 201° |
| 2026-05-07 13:29 | -52.02571 | -66.13342 | 34058 ft | 439 kts | 202° |
| 2026-05-07 13:29 | -52.08340 | -66.16582 | 34056 ft | 438 kts | 202° |
| 2026-05-07 13:30 | -52.14093 | -66.19820 | 34062 ft | 437 kts | 202° |
| 2026-05-07 13:30 | -52.19797 | -66.23039 | 34062 ft | 437 kts | 202° |
| 2026-05-07 13:31 | -52.25533 | -66.26284 | 34062 ft | 436 kts | 202° |
| 2026-05-07 13:31 | -52.31259 | -66.29532 | 34064 ft | 435 kts | 202° |
| 2026-05-07 13:32 | -52.36976 | -66.32786 | 34061 ft | 435 kts | 202° |
| 2026-05-07 13:32 | -52.42683 | -66.36043 | 34066 ft | 434 kts | 202° |
| 2026-05-07 13:33 | -52.48381 | -66.39305 | 34066 ft | 433 kts | 202° |
| 2026-05-07 13:33 | -52.54074 | -66.42571 | 34065 ft | 433 kts | 202° |
| 2026-05-07 13:34 | -52.62600 | -66.47475 | 34067 ft | 432 kts | 202° |
| 2026-05-07 13:35 | -52.68266 | -66.50751 | 34064 ft | 431 kts | 201° |
| 2026-05-07 13:35 | -52.73923 | -66.54029 | 34072 ft | 431 kts | 201° |
| 2026-05-07 13:36 | -52.79573 | -66.57311 | 34076 ft | 430 kts | 201° |
| 2026-05-07 13:36 | -52.85213 | -66.60596 | 34080 ft | 430 kts | 202° |
| 2026-05-07 13:37 | -52.90860 | -66.63893 | 34082 ft | 430 kts | 202° |
| 2026-05-07 13:37 | -52.96455 | -66.67218 | 34080 ft | 430 kts | 203° |
| 2026-05-07 13:38 | -53.02047 | -66.70717 | 34088 ft | 430 kts | 204° |
| 2026-05-07 13:38 | -53.07638 | -66.74247 | 34097 ft | 429 kts | 204° |
| 2026-05-07 13:39 | -53.13227 | -66.77768 | 34097 ft | 430 kts | 204° |
| 2026-05-07 13:39 | -53.18817 | -66.81289 | 34099 ft | 429 kts | 204° |
| 2026-05-07 13:40 | -53.24404 | -66.84817 | 34116 ft | 429 kts | 204° |
| 2026-05-07 13:40 | -53.29985 | -66.88347 | 34113 ft | 429 kts | 204° |
| 2026-05-07 13:41 | -53.35582 | -66.91904 | 34136 ft | 433 kts | 204° |
| 2026-05-07 13:41 | -53.41235 | -66.95503 | 34129 ft | 435 kts | 204° |
| 2026-05-07 13:41 | -53.44075 | -66.97317 | 33736 ft | 440 kts | 204° |
| 2026-05-07 13:42 | -53.46933 | -66.99144 | 33200 ft | 438 kts | 204° |
| 2026-05-07 13:42 | -53.49779 | -67.00962 | 32602 ft | 437 kts | 203° |
| 2026-05-07 13:42 | -53.52624 | -67.02780 | 31979 ft | 438 kts | 203° |
| 2026-05-07 13:42 | -53.55470 | -67.04604 | 31347 ft | 438 kts | 203° |
| 2026-05-07 13:43 | -53.58324 | -67.06439 | 30710 ft | 439 kts | 203° |
| 2026-05-07 13:43 | -53.61170 | -67.08271 | 30219 ft | 437 kts | 202° |
| 2026-05-07 13:43 | -53.64005 | -67.10096 | 29617 ft | 435 kts | 203° |
| 2026-05-07 13:43 | -53.66818 | -67.11911 | 29111 ft | 430 kts | 203° |
| 2026-05-07 13:44 | -53.69594 | -67.13704 | 28629 ft | 426 kts | 203° |
| 2026-05-07 13:44 | -53.72344 | -67.15482 | 28152 ft | 421 kts | 203° |
| 2026-05-07 13:44 | -53.75072 | -67.17249 | 27662 ft | 418 kts | 203° |
| 2026-05-07 13:44 | -53.77771 | -67.19001 | 27192 ft | 414 kts | 203° |
| 2026-05-07 13:45 | -53.80457 | -67.20747 | 26716 ft | 411 kts | 203° |
| 2026-05-07 13:45 | -53.83114 | -67.22476 | 26237 ft | 408 kts | 203° |
| 2026-05-07 13:45 | -53.85749 | -67.24193 | 25786 ft | 404 kts | 203° |
| 2026-05-07 13:45 | -53.88333 | -67.25879 | 25340 ft | 401 kts | 203° |
| 2026-05-07 13:46 | -53.90927 | -67.27574 | 24892 ft | 399 kts | 203° |
| 2026-05-07 13:46 | -53.93509 | -67.29264 | 24435 ft | 396 kts | 203° |
| 2026-05-07 13:46 | -53.96076 | -67.30946 | 23987 ft | 394 kts | 204° |
| 2026-05-07 13:46 | -53.98625 | -67.32618 | 23505 ft | 392 kts | 204° |
| 2026-05-07 13:47 | -54.01162 | -67.34284 | 22994 ft | 390 kts | 204° |
| 2026-05-07 13:47 | -54.03681 | -67.35941 | 22533 ft | 386 kts | 204° |
| 2026-05-07 13:47 | -54.06173 | -67.37581 | 22087 ft | 382 kts | 204° |
| 2026-05-07 13:47 | -54.08641 | -67.39209 | 21650 ft | 379 kts | 204° |
| 2026-05-07 13:48 | -54.11090 | -67.40826 | 21200 ft | 376 kts | 204° |
| 2026-05-07 13:48 | -54.13520 | -67.42433 | 20767 ft | 373 kts | 203° |
| 2026-05-07 13:48 | -54.15934 | -67.44031 | 20343 ft | 371 kts | 203° |
| 2026-05-07 13:48 | -54.18337 | -67.45624 | 19911 ft | 370 kts | 203° |
| 2026-05-07 13:49 | -54.20729 | -67.47218 | 19483 ft | 368 kts | 203° |
| 2026-05-07 13:49 | -54.23110 | -67.48801 | 19063 ft | 367 kts | 203° |
| 2026-05-07 13:49 | -54.25486 | -67.50378 | 18643 ft | 366 kts | 203° |
| 2026-05-07 13:49 | -54.27851 | -67.51952 | 18187 ft | 365 kts | 203° |
| 2026-05-07 13:50 | -54.30213 | -67.53526 | 17721 ft | 363 kts | 203° |
| 2026-05-07 13:50 | -54.32558 | -67.55092 | 17287 ft | 361 kts | 202° |
| 2026-05-07 13:50 | -54.34886 | -67.56651 | 16871 ft | 358 kts | 202° |
| 2026-05-07 13:50 | -54.37208 | -67.58207 | 16460 ft | 357 kts | 202° |
| 2026-05-07 13:51 | -54.39512 | -67.59749 | 16036 ft | 354 kts | 202° |
| 2026-05-07 13:51 | -54.41800 | -67.61282 | 15620 ft | 352 kts | 202° |
| 2026-05-07 13:51 | -54.44071 | -67.62806 | 15219 ft | 350 kts | 202° |
| 2026-05-07 13:51 | -54.46335 | -67.64328 | 14809 ft | 348 kts | 202° |
| 2026-05-07 13:52 | -54.48584 | -67.65847 | 14418 ft | 347 kts | 201° |
| 2026-05-07 13:52 | -54.50916 | -67.66758 | 13888 ft | 344 kts | 181° |
| 2026-05-07 13:52 | -54.53284 | -67.66560 | 13310 ft | 337 kts | 176° |
| 2026-05-07 13:52 | -54.55602 | -67.66252 | 12741 ft | 331 kts | 176° |
| 2026-05-07 13:53 | -54.57875 | -67.65954 | 12186 ft | 325 kts | 176° |
| 2026-05-07 13:53 | -54.60109 | -67.65680 | 11650 ft | 318 kts | 176° |
| 2026-05-07 13:53 | -54.62300 | -67.65428 | 11116 ft | 313 kts | 176° |
| 2026-05-07 13:53 | -54.64458 | -67.65186 | 10599 ft | 308 kts | 176° |
| 2026-05-07 13:54 | -54.66579 | -67.64949 | 10159 ft | 302 kts | 176° |
| 2026-05-07 13:54 | -54.68594 | -67.64721 | 10174 ft | 280 kts | 176° |
| 2026-05-07 13:54 | -54.70482 | -67.64508 | 10074 ft | 265 kts | 176° |
| 2026-05-07 13:54 | -54.72270 | -67.64304 | 9895 ft | 253 kts | 176° |
| 2026-05-07 13:55 | -54.74025 | -67.64109 | 9484 ft | 252 kts | 176° |
| 2026-05-07 13:55 | -54.75777 | -67.63919 | 9021 ft | 253 kts | 176° |
| 2026-05-07 13:55 | -54.77527 | -67.63731 | 8634 ft | 251 kts | 176° |
| 2026-05-07 13:55 | -54.79250 | -67.63934 | 8245 ft | 248 kts | 200° |
| 2026-05-07 13:56 | -54.80698 | -67.65438 | 7990 ft | 242 kts | 221° |
| 2026-05-07 13:56 | -54.81692 | -67.67736 | 7606 ft | 241 kts | 251° |
| 2026-05-07 13:56 | -54.81965 | -67.70597 | 7243 ft | 241 kts | 265° |
| 2026-05-07 13:56 | -54.82083 | -67.73498 | 6861 ft | 241 kts | 266° |
| 2026-05-07 13:57 | -54.82187 | -67.76402 | 6496 ft | 241 kts | 266° |
| 2026-05-07 13:57 | -54.82296 | -67.79252 | 6271 ft | 228 kts | 265° |
| 2026-05-07 13:57 | -54.82400 | -67.81854 | 6117 ft | 206 kts | 265° |
| 2026-05-07 13:57 | -54.82508 | -67.84270 | 5703 ft | 198 kts | 263° |
| 2026-05-07 13:58 | -54.82651 | -67.86643 | 5282 ft | 197 kts | 261° |
| 2026-05-07 13:58 | -54.82807 | -67.89006 | 5159 ft | 197 kts | 263° |
| 2026-05-07 13:58 | -54.82918 | -67.91326 | 5062 ft | 197 kts | 264° |
| 2026-05-07 13:58 | -54.83009 | -67.93697 | 4733 ft | 194 kts | 265° |
| 2026-05-07 13:59 | -54.83090 | -67.95970 | 4447 ft | 184 kts | 265° |
| 2026-05-07 13:59 | -54.83166 | -67.98139 | 4132 ft | 176 kts | 264° |
| 2026-05-07 13:59 | -54.83241 | -68.00216 | 3852 ft | 169 kts | 264° |
| 2026-05-07 13:59 | -54.83311 | -68.02217 | 3588 ft | 164 kts | 264° |
| 2026-05-07 14:00 | -54.83383 | -68.04187 | 3372 ft | 162 kts | 264° |
| 2026-05-07 14:00 | -54.83455 | -68.06120 | 3054 ft | 158 kts | 264° |
| 2026-05-07 14:00 | -54.83523 | -68.07991 | 2783 ft | 153 kts | 264° |
| 2026-05-07 14:00 | -54.83589 | -68.09832 | 2545 ft | 154 kts | 264° |
| 2026-05-07 14:01 | -54.83658 | -68.11689 | 2280 ft | 154 kts | 264° |
| 2026-05-07 14:01 | -54.83726 | -68.13532 | 2030 ft | 152 kts | 264° |
| 2026-05-07 14:01 | -54.83793 | -68.15349 | 1768 ft | 151 kts | 264° |
| 2026-05-07 14:01 | -54.83861 | -68.17182 | 1493 ft | 153 kts | 265° |
| 2026-05-07 14:02 | -54.83929 | -68.19029 | 1225 ft | 154 kts | 265° |
| 2026-05-07 14:02 | -54.83997 | -68.20891 | 962 ft | 156 kts | 265° |
| 2026-05-07 14:02 | -54.84069 | -68.22775 | 737 ft | 157 kts | 266° |
| 2026-05-07 14:02 | -54.84141 | -68.24669 | 504 ft | 155 kts | 266° |
| 2026-05-07 14:03 | -54.84211 | -68.26461 | 276 ft | 152 kts | 266° |
| 2026-05-07 14:03 | -54.84282 | -68.28288 | 57 ft | 148 kts | 265° |
| 2026-05-07 14:03 | -54.84338 | -68.29733 | 55 ft | 95 kts | 266° |
| 2026-05-07 14:03 | -54.84367 | -68.30499 | 61 ft | 34 kts | 266° |
| 2026-05-07 14:04 | -54.84380 | -68.30836 | 61 ft | 21 kts | 266° |
| 2026-05-07 14:04 | -54.84359 | -68.30946 | 59 ft | 7 kts | 329° |
| 2026-05-07 14:04 | -54.84309 | -68.30961 | 58 ft | 7 kts | 356° |
| 2026-05-07 14:04 | -54.84260 | -68.30967 | 62 ft | 7 kts | 356° |
| 2026-05-07 14:05 | -54.84212 | -68.30972 | 65 ft | 7 kts | 356° |
| 2026-05-07 14:05 | -54.84165 | -68.30978 | 71 ft | 7 kts | 356° |
| 2026-05-07 14:05 | -54.84118 | -68.30985 | 71 ft | 7 kts | 349° |
| 2026-05-07 14:05 | -54.84090 | -68.31044 | 74 ft | 7 kts | 277° |
| 2026-05-07 14:06 | -54.84092 | -68.31125 | 76 ft | 6 kts | 267° |
| 2026-05-07 14:06 | -54.84082 | -68.31166 | 76 ft | 3 kts | 321° |
| 2026-05-07 14:06 | -54.84059 | -68.31174 | 72 ft | 3 kts | 355° |
| 2026-05-07 14:06 | -54.84038 | -68.31177 | 71 ft | 2 kts | 355° |
| 2026-05-07 14:07 | -54.84029 | -68.31178 | 71 ft | 0 kts | 355° |